Time;durP1;ratioP1;P1;durP2;ratioP2;P2;SDS_P1;SDS_P2;PMS_P1;PMS_P2;Temp;Humidity;BMP_temperature;BMP_pressure;BME280_temperature;BME280_humidity;BME280_pressure;Samples;Min_cycle;Max_cycle;Signal;HPM_P1;HPM_P2
2022/12/31 00:01:15;;;;;;;;;;;;;;;;;;5096410;28;19919;-57
2022/12/31 00:03:41;;;;;;;;;;;;;;;;;;5091453;28;20580;-60
2022/12/31 00:06:07;;;;;;;;;;;;;;;;;;5101651;28;19939;-60
2022/12/31 00:08:33;;;;;;;;;;;;;;;;;;5080010;28;19921;-60
2022/12/31 00:10:59;;;;;;;;;;;;;;;;;;5101016;28;20339;-59
2022/12/31 00:13:25;;;;;;;;;;;;;;;;;;5102272;28;19959;-59
2022/12/31 00:15:51;;;;;;;;;;;;;;;;;;5100088;28;19931;-61
2022/12/31 00:18:17;;;;;;;;;;;;;;;;;;5090064;28;19925;-61
2022/12/31 00:20:43;;;;;;;;;;;;;;;;;;5101515;28;19931;-60
2022/12/31 00:23:09;;;;;;;;;;;;;;;;;;5099193;28;19932;-61
2022/12/31 00:25:35;;;;;;;;;;;;;;;;;;5090930;28;20361;-60
2022/12/31 00:28:01;;;;;;;;;;;;;;;;;;5074880;28;19932;-59
2022/12/31 00:30:27;;;;;;;;;;;;;;;;;;5087975;28;19967;-60
2022/12/31 00:32:53;;;;;;;;;;;;;;;;;;5093657;28;20386;-59
2022/12/31 00:35:19;;;;;;;;;;;;;;;;;;5097016;28;19935;-61
2022/12/31 00:37:45;;;;;;;;;;;;;;;;;;5096892;28;19924;-60
2022/12/31 00:40:11;;;;;;;;;;;;;;;;;;5095756;28;19924;-59
2022/12/31 00:42:37;;;;;;;;;;;;;;;;;;5101705;28;20274;-60
2022/12/31 00:45:03;;;;;;;;;;;;;;;;;;5093264;28;19924;-59
2022/12/31 00:47:29;;;;;;;;;;;;;;;;;;5102540;28;19952;-60
2022/12/31 00:49:55;;;;;;;;;;;;;;;;;;5101542;28;20377;-60
2022/12/31 00:52:21;;;;;;;;;;;;;;;;;;5088813;28;19931;-59
2022/12/31 00:54:47;;;;;;;;;;;;;;;;;;5095830;28;19930;-57
2022/12/31 00:57:13;;;;;;;;;;;;;;;;;;5097051;28;19923;-60
2022/12/31 00:59:39;;;;;;;;;;;;;;;;;;5104782;28;20696;-60
2022/12/31 01:02:05;;;;;;;;;;;;;;;;;;5100481;28;19928;-60
2022/12/31 01:04:31;;;;;;;;;;;;;;;;;;5102376;28;19924;-58
2022/12/31 01:06:57;;;;;;;;;;;;;;;;;;5098775;28;20661;-60
2022/12/31 01:09:23;;;;;;;;;;;;;;;;;;5084644;28;19924;-59
2022/12/31 01:11:49;;;;;;;;;;;;;;;;;;5085357;28;19951;-59
2022/12/31 01:14:15;;;;;;;;;;;;;;;;;;5079057;28;19927;-60
2022/12/31 01:16:41;;;;;;;;;;;;;;;;;;5078839;28;21524;-59
2022/12/31 01:19:07;;;;;;;;;;;;;;;;;;5079426;28;19977;-60
2022/12/31 01:21:33;;;;;;;;;;;;;;;;;;5072759;28;19932;-57
2022/12/31 01:23:59;;;;;;;;;;;;;;;;;;5077526;28;19925;-60
2022/12/31 01:26:25;;;;;;;;;;;;;;;;;;5082920;28;19980;-60
2022/12/31 01:28:51;;;;;;;;;;;;;;;;;;5080385;28;20057;-60
2022/12/31 01:31:17;;;;;;;;;;;;;;;;;;5082985;28;20011;-57
2022/12/31 01:33:43;;;;;;;;;;;;;;;;;;5075490;28;19924;-60
2022/12/31 01:36:09;;;;;;;;;;;;;;;;;;5082454;28;20057;-60
2022/12/31 01:38:35;;;;;;;;;;;;;;;;;;5078552;28;19970;-60
2022/12/31 01:41:01;;;;;;;;;;;;;;;;;;5080969;28;20274;-60
2022/12/31 01:43:27;;;;;;;;;;;;;;;;;;5081948;28;19930;-60
2022/12/31 01:45:53;;;;;;;;;;;;;;;;;;5081101;28;19924;-60
2022/12/31 01:48:19;;;;;;;;;;;;;;;;;;5072327;28;19951;-59
2022/12/31 01:50:45;;;;;;;;;;;;;;;;;;5075303;28;19924;-61
2022/12/31 01:53:11;;;;;;;;;;;;;;;;;;5074111;28;19971;-61
2022/12/31 01:55:37;;;;;;;;;;;;;;;;;;5061841;28;19963;-60
2022/12/31 01:58:03;;;;;;;;;;;;;;;;;;5081820;28;20395;-55
2022/12/31 02:00:29;;;;;;;;;;;;;;;;;;5081492;28;19959;-60
2022/12/31 02:02:55;;;;;;;;;;;;;;;;;;5084400;28;19938;-58
2022/12/31 02:05:21;;;;;;;;;;;;;;;;;;5081275;28;19931;-61
2022/12/31 02:07:47;;;;;;;;;;;;;;;;;;5075090;28;19925;-60
2022/12/31 02:10:13;;;;;;;;;;;;;;;;;;5082215;28;19930;-61
2022/12/31 02:12:39;;;;;;;;;;;;;;;;;;5099884;28;20278;-60
2022/12/31 02:15:05;;;;;;;;;;;;;;;;;;5098475;28;19924;-60
2022/12/31 02:17:31;;;;;;;;;;;;;;;;;;5100164;28;20018;-60
2022/12/31 02:19:57;;;;;;;;;;;;;;;;;;5093317;28;20018;-59
2022/12/31 02:22:23;;;;;;;;;;;;;;;;;;5095544;28;20362;-61
2022/12/31 02:24:49;;;;;;;;;;;;;;;;;;5095937;28;19927;-60
2022/12/31 02:27:15;;;;;;;;;;;;;;;;;;5096676;28;19924;-61
2022/12/31 02:29:41;;;;;;;;;;;;;;;;;;5101848;28;20289;-60
2022/12/31 02:32:07;;;;;;;;;;;;;;;;;;5099766;28;19924;-59
2022/12/31 02:34:33;;;;;;;;;;;;;;;;;;5092922;28;19924;-61
2022/12/31 02:36:59;;;;;;;;;;;;;;;;;;5097053;28;19931;-61
2022/12/31 02:39:25;;;;;;;;;;;;;;;;;;5097933;28;19927;-57
2022/12/31 02:41:52;;;;;;;;;;;;;;;;;;5101558;28;20418;-56
2022/12/31 02:44:18;;;;;;;;;;;;;;;;;;5100593;28;20344;-60
2022/12/31 02:46:44;;;;;;;;;;;;;;;;;;5102078;28;20019;-59
2022/12/31 02:49:10;;;;;;;;;;;;;;;;;;5060754;28;20003;-61
2022/12/31 02:51:36;;;;;;;;;;;;;;;;;;5097155;28;19930;-58
2022/12/31 02:54:02;;;;;;;;;;;;;;;;;;5094834;28;20649;-60
2022/12/31 02:56:28;;;;;;;;;;;;;;;;;;5095201;28;19924;-60
2022/12/31 03:04:30;;;;;;;;;;;;;;;;;;5090049;28;20004;-59
2022/12/31 03:06:56;;;;;;;;;;;;;;;;;;5102041;28;19977;-58
2022/12/31 03:09:22;;;;;;;;;;;;;;;;;;5091281;28;20011;-60
2022/12/31 03:14:33;;;;;;;;;;;;;;;;;;5077735;28;19928;-60
2022/12/31 03:16:59;;;;;;;;;;;;;;;;;;5072434;28;19924;-56
2022/12/31 03:22:28;;;;;;;;;;;;;;;;;;5078128;28;19975;-60
2022/12/31 03:27:38;;;;;;;;;;;;;;;;;;5073214;28;19935;-60
2022/12/31 03:30:04;;;;;;;;;;;;;;;;;;5074449;28;19928;-60
2022/12/31 03:32:30;;;;;;;;;;;;;;;;;;5076516;28;19970;-60
2022/12/31 03:34:56;;;;;;;;;;;;;;;;;;5069621;28;19931;-59
2022/12/31 03:37:22;;;;;;;;;;;;;;;;;;5077416;28;20278;-59
2022/12/31 03:39:48;;;;;;;;;;;;;;;;;;5073440;28;19928;-60
2022/12/31 03:42:14;;;;;;;;;;;;;;;;;;5075658;28;19940;-59
2022/12/31 03:44:40;;;;;;;;;;;;;;;;;;5084223;28;20290;-60
2022/12/31 03:47:06;;;;;;;;;;;;;;;;;;5059337;28;19960;-59
2022/12/31 03:49:32;;;;;;;;;;;;;;;;;;5076754;28;19931;-61
2022/12/31 03:51:58;;;;;;;;;;;;;;;;;;5077028;28;20374;-60
2022/12/31 03:54:24;;;;;;;;;;;;;;;;;;5075750;28;19932;-60
2022/12/31 03:56:50;;;;;;;;;;;;;;;;;;5074033;28;19924;-60
2022/12/31 03:59:16;;;;;;;;;;;;;;;;;;5076599;28;20290;-59
2022/12/31 04:01:42;;;;;;;;;;;;;;;;;;5078610;28;19939;-60
2022/12/31 04:04:08;;;;;;;;;;;;;;;;;;5069818;28;19983;-60
2022/12/31 04:06:34;;;;;;;;;;;;;;;;;;5076231;28;20471;-59
2022/12/31 04:09:00;;;;;;;;;;;;;;;;;;5076337;28;19961;-61
2022/12/31 04:11:26;;;;;;;;;;;;;;;;;;5074609;28;19924;-60
2022/12/31 04:13:52;;;;;;;;;;;;;;;;;;5075703;28;20568;-60
2022/12/31 04:16:18;;;;;;;;;;;;;;;;;;5062632;28;19924;-61
2022/12/31 04:18:44;;;;;;;;;;;;;;;;;;5049280;28;20345;-60
2022/12/31 04:21:10;;;;;;;;;;;;;;;;;;5040357;28;20030;-61
2022/12/31 04:23:36;;;;;;;;;;;;;;;;;;5084083;28;19931;-60
2022/12/31 04:26:02;;;;;;;;;;;;;;;;;;5062324;28;20325;-60
2022/12/31 04:28:28;;;;;;;;;;;;;;;;;;5078296;28;19931;-60
2022/12/31 04:30:54;;;;;;;;;;;;;;;;;;5073428;28;19924;-59
2022/12/31 04:33:20;;;;;;;;;;;;;;;;;;5078711;28;19932;-60
2022/12/31 04:35:46;;;;;;;;;;;;;;;;;;5083644;28;19981;-60
2022/12/31 04:38:12;;;;;;;;;;;;;;;;;;5086642;28;19924;-60
2022/12/31 04:41:15;;;;;;;;;;;;;;;;;;5087697;28;20305;-59
2022/12/31 04:43:25;;;;;;;;;;;;;;;;;;5087142;28;19928;-59
2022/12/31 04:45:51;;;;;;;;;;;;;;;;;;5078200;28;19927;-61
2022/12/31 04:48:17;;;;;;;;;;;;;;;;;;5082159;28;19947;-60
2022/12/31 04:50:43;;;;;;;;;;;;;;;;;;5079438;28;19971;-58
2022/12/31 04:53:09;;;;;;;;;;;;;;;;;;5069566;28;20014;-59
2022/12/31 04:55:35;;;;;;;;;;;;;;;;;;5080835;28;20402;-60
2022/12/31 04:58:01;;;;;;;;;;;;;;;;;;5070483;28;19966;-57
2022/12/31 05:00:27;;;;;;;;;;;;;;;;;;5075717;28;19925;-59
2022/12/31 05:02:53;;;;;;;;;;;;;;;;;;5080319;28;20529;-60
2022/12/31 05:05:19;;;;;;;;;;;;;;;;;;5073988;28;19928;-60
2022/12/31 05:07:45;;;;;;;;;;;;;;;;;;5085661;28;20038;-60
2022/12/31 05:10:11;;;;;;;;;;;;;;;;;;5083510;28;20237;-59
2022/12/31 05:12:37;;;;;;;;;;;;;;;;;;5087191;28;20297;-59
2022/12/31 05:15:03;;;;;;;;;;;;;;;;;;5086712;28;20455;-59
2022/12/31 05:17:29;;;;;;;;;;;;;;;;;;5089205;28;20010;-58
2022/12/31 05:19:55;;;;;;;;;;;;;;;;;;5094861;28;19924;-59
2022/12/31 05:22:30;;;;;;;;;;;;;;;;;;5088752;28;20025;-60
2022/12/31 05:24:56;;;;;;;;;;;;;;;;;;5087754;28;19932;-60
2022/12/31 05:27:22;;;;;;;;;;;;;;;;;;5086525;28;19924;-59
2022/12/31 05:29:48;;;;;;;;;;;;;;;;;;5086218;28;20340;-60
2022/12/31 05:32:14;;;;;;;;;;;;;;;;;;5088843;28;19950;-60
2022/12/31 05:34:40;;;;;;;;;;;;;;;;;;5085926;28;19924;-60
2022/12/31 05:37:06;;;;;;;;;;;;;;;;;;5089782;28;19951;-59
2022/12/31 05:39:32;;;;;;;;;;;;;;;;;;5085581;28;20409;-60
2022/12/31 05:41:58;;;;;;;;;;;;;;;;;;5086358;28;20022;-60
2022/12/31 05:44:24;;;;;;;;;;;;;;;;;;5086015;28;20015;-60
2022/12/31 05:46:50;;;;;;;;;;;;;;;;;;5085967;28;20361;-59
2022/12/31 05:49:16;;;;;;;;;;;;;;;;;;5099229;28;19977;-60
2022/12/31 05:51:42;;;;;;;;;;;;;;;;;;5085854;28;19923;-60
2022/12/31 05:54:08;;;;;;;;;;;;;;;;;;5086186;28;19935;-59
2022/12/31 05:56:34;;;;;;;;;;;;;;;;;;5091887;28;19959;-60
2022/12/31 05:59:00;;;;;;;;;;;;;;;;;;5085756;28;20650;-59
2022/12/31 06:01:26;;;;;;;;;;;;;;;;;;5088403;28;19976;-58
2022/12/31 06:03:52;;;;;;;;;;;;;;;;;;5098942;28;19924;-58
2022/12/31 06:06:18;;;;;;;;;;;;;;;;;;5085980;28;20005;-60
2022/12/31 06:08:44;;;;;;;;;;;;;;;;;;5085503;28;19967;-59
2022/12/31 06:11:10;;;;;;;;;;;;;;;;;;5080597;28;19935;-60
2022/12/31 06:13:36;;;;;;;;;;;;;;;;;;5076180;28;19924;-60
2022/12/31 06:16:02;;;;;;;;;;;;;;;;;;5084339;28;20337;-61
2022/12/31 06:18:28;;;;;;;;;;;;;;;;;;5077795;28;19924;-59
2022/12/31 06:20:54;;;;;;;;;;;;;;;;;;5072778;28;19971;-60
2022/12/31 06:23:20;;;;;;;;;;;;;;;;;;5081386;28;20394;-60
2022/12/31 06:25:46;;;;;;;;;;;;;;;;;;5059766;28;19993;-60
2022/12/31 06:28:12;;;;;;;;;;;;;;;;;;5078101;28;19932;-61
2022/12/31 06:30:38;;;;;;;;;;;;;;;;;;5070174;28;19951;-62
2022/12/31 06:33:04;;;;;;;;;;;;;;;;;;5080344;28;19932;-60
2022/12/31 06:35:30;;;;;;;;;;;;;;;;;;5082180;28;19924;-59
2022/12/31 06:37:56;;;;;;;;;;;;;;;;;;5084932;28;19920;-60
2022/12/31 06:40:22;;;;;;;;;;;;;;;;;;5084285;28;19948;-58
2022/12/31 06:42:48;;;;;;;;;;;;;;;;;;5084252;28;20327;-61
2022/12/31 06:45:14;;;;;;;;;;;;;;;;;;5072839;28;19924;-59
2022/12/31 06:47:40;;;;;;;;;;;;;;;;;;5083742;28;19932;-61
2022/12/31 06:50:06;;;;;;;;;;;;;;;;;;5078999;28;20013;-61
2022/12/31 06:52:32;;;;;;;;;;;;;;;;;;5084564;28;19924;-60
2022/12/31 06:54:58;;;;;;;;;;;;;;;;;;5084784;28;19930;-61
2022/12/31 06:57:24;;;;;;;;;;;;;;;;;;5076876;28;19924;-60
2022/12/31 06:59:50;;;;;;;;;;;;;;;;;;5069602;28;19970;-60
2022/12/31 07:02:16;;;;;;;;;;;;;;;;;;5068941;28;19927;-58
2022/12/31 07:04:42;;;;;;;;;;;;;;;;;;5069308;28;20044;-60
2022/12/31 07:07:08;;;;;;;;;;;;;;;;;;5077208;28;19932;-59
2022/12/31 07:09:34;;;;;;;;;;;;;;;;;;5068548;28;20373;-60
2022/12/31 07:12:00;;;;;;;;;;;;;;;;;;5091996;28;19931;-60
2022/12/31 07:14:26;;;;;;;;;;;;;;;;;;5100128;28;19932;-60
2022/12/31 07:16:52;;;;;;;;;;;;;;;;;;5093002;27;19994;-60
2022/12/31 07:19:18;;;;;;;;;;;;;;;;;;5087615;28;19950;-61
2022/12/31 07:21:44;;;;;;;;;;;;;;;;;;5091140;28;19924;-60
2022/12/31 07:24:10;;;;;;;;;;;;;;;;;;5087719;28;20085;-59
2022/12/31 07:26:36;;;;;;;;;;;;;;;;;;5092798;28;19977;-62
2022/12/31 07:29:02;;;;;;;;;;;;;;;;;;5092621;28;19924;-58
2022/12/31 07:31:28;;;;;;;;;;;;;;;;;;5089966;28;19928;-58
2022/12/31 07:33:55;;;;;;;;;;;;;;;;;;5090053;28;19931;-58
2022/12/31 07:36:21;;;;;;;;;;;;;;;;;;5086411;28;19924;-60
2022/12/31 07:38:46;;;;;;;;;;;;;;;;;;5088129;28;20322;-60
2022/12/31 07:41:12;;;;;;;;;;;;;;;;;;5089949;28;19986;-60
2022/12/31 07:43:38;;;;;;;;;;;;;;;;;;5088105;28;19975;-60
2022/12/31 07:46:05;;;;;;;;;;;;;;;;;;5092523;28;20313;-61
2022/12/31 07:48:31;;;;;;;;;;;;;;;;;;5068330;28;19970;-61
2022/12/31 07:50:57;;;;;;;;;;;;;;;;;;5090535;28;19928;-60
2022/12/31 07:53:23;;;;;;;;;;;;;;;;;;5087766;28;19989;-60
2022/12/31 07:55:49;;;;;;;;;;;;;;;;;;5068160;28;20400;-60
2022/12/31 07:58:15;;;;;;;;;;;;;;;;;;5090235;28;19928;-61
2022/12/31 08:00:41;;;;;;;;;;;;;;;;;;5085786;28;19924;-58
2022/12/31 08:03:07;;;;;;;;;;;;;;;;;;5085422;28;19920;-59
2022/12/31 08:05:33;;;;;;;;;;;;;;;;;;5096372;28;19985;-60
2022/12/31 08:07:59;;;;;;;;;;;;;;;;;;5089133;28;19928;-59
2022/12/31 08:10:26;;;;;;;;;;;;;;;;;;5093842;28;19939;-59
2022/12/31 08:12:52;;;;;;;;;;;;;;;;;;5084549;28;20254;-59
2022/12/31 08:15:18;;;;;;;;;;;;;;;;;;5090709;28;20746;-60
2022/12/31 08:17:44;;;;;;;;;;;;;;;;;;5090245;28;19928;-60
2022/12/31 08:20:10;;;;;;;;;;;;;;;;;;5094312;28;20274;-60
2022/12/31 08:22:36;;;;;;;;;;;;;;;;;;5114422;27;19944;-60
2022/12/31 08:25:02;;;;;;;;;;;;;;;;;;5097489;28;19924;-60
2022/12/31 08:27:28;;;;;;;;;;;;;;;;;;5112637;27;19929;-60
2022/12/31 08:29:54;;;;;;;;;;;;;;;;;;5098020;28;19924;-59
2022/12/31 08:32:20;;;;;;;;;;;;;;;;;;5101691;27;19978;-59
2022/12/31 08:34:46;;;;;;;;;;;;;;;;;;5099391;27;20030;-57
2022/12/31 08:37:12;;;;;;;;;;;;;;;;;;5093217;28;19969;-59
2022/12/31 08:39:38;;;;;;;;;;;;;;;;;;5101186;27;19932;-57
2022/12/31 08:42:04;;;;;;;;;;;;;;;;;;5090381;28;20036;-58
2022/12/31 08:44:31;;;;;;;;;;;;;;;;;;5091965;28;20682;-59
2022/12/31 08:46:56;;;;;;;;;;;;;;;;;;5102244;28;19955;-59
2022/12/31 08:49:22;;;;;;;;;;;;;;;;;;5102576;28;20393;-56
2022/12/31 08:51:49;;;;;;;;;;;;;;;;;;5097062;28;20455;-59
2022/12/31 08:54:15;;;;;;;;;;;;;;;;;;5100299;28;19924;-59
2022/12/31 08:56:41;;;;;;;;;;;;;;;;;;5100770;28;19924;-57
2022/12/31 08:59:07;;;;;;;;;;;;;;;;;;5100838;28;19924;-59
2022/12/31 09:01:33;;;;;;;;;;;;;;;;;;5098990;28;19928;-57
2022/12/31 09:03:59;;;;;;;;;;;;;;;;;;5096439;28;19969;-58
2022/12/31 09:06:25;;;;;;;;;;;;;;;;;;5094386;28;19997;-57
2022/12/31 09:08:51;;;;;;;;;;;;;;;;;;5094367;28;19931;-59
2022/12/31 09:11:17;;;;;;;;;;;;;;;;;;5094537;28;19928;-59
2022/12/31 09:13:43;;;;;;;;;;;;;;;;;;5097451;28;19969;-59
2022/12/31 09:16:09;;;;;;;;;;;;;;;;;;5097102;28;19975;-57
2022/12/31 09:18:35;;;;;;;;;;;;;;;;;;5091759;28;20320;-59
2022/12/31 09:21:01;;;;;;;;;;;;;;;;;;5093898;28;20348;-57
2022/12/31 09:23:27;;;;;;;;;;;;;;;;;;5084809;28;20456;-58
2022/12/31 09:25:54;;;;;;;;;;;;;;;;;;5090032;27;19930;-61
2022/12/31 09:28:20;;;;;;;;;;;;;;;;;;5096511;28;20369;-56
2022/12/31 09:30:46;;;;;;;;;;;;;;;;;;5096884;27;19932;-56
2022/12/31 09:33:12;;;;;;;;;;;;;;;;;;5100480;27;19938;-58
2022/12/31 09:35:38;;;;;;;;;;;;;;;;;;5099634;27;19919;-56
2022/12/31 09:38:04;;;;;;;;;;;;;;;;;;5102763;28;20385;-58
2022/12/31 09:40:30;;;;;;;;;;;;;;;;;;5093526;28;19920;-57
2022/12/31 09:42:57;;;;;;;;;;;;;;;;;;5104907;27;19924;-58
2022/12/31 09:45:23;;;;;;;;;;;;;;;;;;5096994;28;19924;-58
2022/12/31 09:47:50;;;;;;;;;;;;;;;;;;5071338;28;19931;-56
2022/12/31 09:50:16;;;;;;;;;;;;;;;;;;5102833;27;20314;-58
2022/12/31 09:52:43;;;;;;;;;;;;;;;;;;5099661;28;19931;-58
2022/12/31 09:55:09;;;;;;;;;;;;;;;;;;5098592;28;20332;-58
2022/12/31 09:57:35;;;;;;;;;;;;;;;;;;5100510;28;21622;-59
2022/12/31 10:00:01;;;;;;;;;;;;;;;;;;5106337;28;19927;-58
2022/12/31 10:02:27;;;;;;;;;;;;;;;;;;5099480;28;19923;-59
2022/12/31 10:04:53;;;;;;;;;;;;;;;;;;5094805;28;19924;-59
2022/12/31 10:07:19;;;;;;;;;;;;;;;;;;5094754;28;20595;-58
2022/12/31 10:09:45;;;;;;;;;;;;;;;;;;5098563;28;19928;-57
2022/12/31 10:12:11;;;;;;;;;;;;;;;;;;5076443;28;19924;-58
2022/12/31 10:14:37;;;;;;;;;;;;;;;;;;5073014;28;19924;-59
2022/12/31 10:17:03;;;;;;;;;;;;;;;;;;5076178;28;19928;-57
2022/12/31 10:19:29;;;;;;;;;;;;;;;;;;5073899;28;19924;-56
2022/12/31 10:21:55;;;;;;;;;;;;;;;;;;5087239;28;20316;-58
2022/12/31 10:24:21;;;;;;;;;;;;;;;;;;5071155;28;20393;-57
2022/12/31 10:26:47;;;;;;;;;;;;;;;;;;5069213;28;19924;-58
2022/12/31 10:29:13;;;;;;;;;;;;;;;;;;5077540;28;19924;-59
2022/12/31 10:31:39;;;;;;;;;;;;;;;;;;5085635;28;19928;-58
2022/12/31 10:34:05;;;;;;;;;;;;;;;;;;5085104;28;20035;-59
2022/12/31 10:36:31;;;;;;;;;;;;;;;;;;5056888;28;19921;-58
2022/12/31 10:38:57;;;;;;;;;;;;;;;;;;5070174;28;20050;-58
2022/12/31 10:41:23;;;;;;;;;;;;;;;;;;5066826;28;20054;-59
2022/12/31 10:43:49;;;;;;;;;;;;;;;;;;5068897;28;19924;-55
2022/12/31 10:46:15;;;;;;;;;;;;;;;;;;5062141;28;20373;-58
2022/12/31 10:48:41;;;;;;;;;;;;;;;;;;5057182;28;19928;-56
2022/12/31 10:51:07;;;;;;;;;;;;;;;;;;5051895;28;20030;-58
2022/12/31 10:53:33;;;;;;;;;;;;;;;;;;5079585;28;20010;-57
2022/12/31 10:55:59;;;;;;;;;;;;;;;;;;5074270;28;19944;-58
2022/12/31 10:58:25;;;;;;;;;;;;;;;;;;5085055;28;19986;-57
2022/12/31 11:00:51;;;;;;;;;;;;;;;;;;5077486;28;19932;-57
2022/12/31 11:03:17;;;;;;;;;;;;;;;;;;5072707;28;19924;-58
2022/12/31 11:05:43;;;;;;;;;;;;;;;;;;5073785;28;19924;-58
2022/12/31 11:08:09;;;;;;;;;;;;;;;;;;5078387;28;19924;-58
2022/12/31 11:10:35;;;;;;;;;;;;;;;;;;5081353;28;19924;-58
2022/12/31 11:13:01;;;;;;;;;;;;;;;;;;5067235;28;20492;-58
2022/12/31 11:15:27;;;;;;;;;;;;;;;;;;5072320;28;20002;-56
2022/12/31 11:17:53;;;;;;;;;;;;;;;;;;5071468;28;19931;-58
2022/12/31 11:20:19;;;;;;;;;;;;;;;;;;5067212;28;19955;-55
2022/12/31 11:22:45;;;;;;;;;;;;;;;;;;5066985;28;19924;-58
2022/12/31 11:25:11;;;;;;;;;;;;;;;;;;5067495;28;20298;-56
2022/12/31 11:27:37;;;;;;;;;;;;;;;;;;5066487;28;19931;-57
2022/12/31 11:30:03;;;;;;;;;;;;;;;;;;5068783;28;19934;-57
2022/12/31 11:32:29;;;;;;;;;;;;;;;;;;5060613;28;19932;-55
2022/12/31 11:34:55;;;;;;;;;;;;;;;;;;5060006;28;19931;-57
2022/12/31 11:37:21;;;;;;;;;;;;;;;;;;5068251;28;19947;-57
2022/12/31 11:39:48;;;;;;;;;;;;;;;;;;5066670;28;20565;-57
2022/12/31 11:42:14;;;;;;;;;;;;;;;;;;5067453;28;19924;-56
2022/12/31 11:44:40;;;;;;;;;;;;;;;;;;5058560;28;20397;-57
2022/12/31 11:47:06;;;;;;;;;;;;;;;;;;5060787;28;19973;-57
2022/12/31 11:49:32;;;;;;;;;;;;;;;;;;5064502;28;20033;-58
2022/12/31 11:51:58;;;;;;;;;;;;;;;;;;5065173;28;19925;-56
2022/12/31 11:54:24;;;;;;;;;;;;;;;;;;5071118;28;19928;-57
2022/12/31 11:56:50;;;;;;;;;;;;;;;;;;5069535;28;20348;-58
2022/12/31 11:59:16;;;;;;;;;;;;;;;;;;5068446;28;19978;-57
2022/12/31 12:01:42;;;;;;;;;;;;;;;;;;5083008;28;19932;-57
2022/12/31 12:04:08;;;;;;;;;;;;;;;;;;5069110;28;19967;-54
2022/12/31 12:06:34;;;;;;;;;;;;;;;;;;5081672;28;20002;-55
2022/12/31 12:09:00;;;;;;;;;;;;;;;;;;5075060;28;20697;-57
2022/12/31 12:11:26;;;;;;;;;;;;;;;;;;5079808;28;19929;-57
2022/12/31 12:13:52;;;;;;;;;;;;;;;;;;5092926;28;19955;-57
2022/12/31 12:16:18;;;;;;;;;;;;;;;;;;5087007;28;19920;-53
2022/12/31 12:18:44;;;;;;;;;;;;;;;;;;5090997;28;19963;-57
2022/12/31 12:21:10;;;;;;;;;;;;;;;;;;5105293;28;20361;-57
2022/12/31 12:23:36;;;;;;;;;;;;;;;;;;5104962;28;20304;-58
2022/12/31 12:26:02;;;;;;;;;;;;;;;;;;5105509;28;19927;-57
2022/12/31 12:28:28;;;;;;;;;;;;;;;;;;5104172;28;19919;-57
2022/12/31 12:30:54;;;;;;;;;;;;;;;;;;5104509;28;19923;-55
2022/12/31 12:33:20;;;;;;;;;;;;;;;;;;5100407;28;19968;-57
2022/12/31 12:35:46;;;;;;;;;;;;;;;;;;5104083;28;19932;-57
2022/12/31 12:38:12;;;;;;;;;;;;;;;;;;5102452;28;20203;-57
2022/12/31 12:40:38;;;;;;;;;;;;;;;;;;5092443;28;20456;-56
2022/12/31 12:43:05;;;;;;;;;;;;;;;;;;5092663;28;20435;-56
2022/12/31 12:45:31;;;;;;;;;;;;;;;;;;5088394;28;19928;-57
2022/12/31 12:47:57;;;;;;;;;;;;;;;;;;5096478;28;19989;-57
2022/12/31 12:50:23;;;;;;;;;;;;;;;;;;5099332;28;19971;-57
2022/12/31 12:52:49;;;;;;;;;;;;;;;;;;5100301;28;20018;-57
2022/12/31 12:55:16;;;;;;;;;;;;;;;;;;5096197;28;20597;-56
2022/12/31 12:57:41;;;;;;;;;;;;;;;;;;5097844;27;20010;-56
2022/12/31 13:00:08;;;;;;;;;;;;;;;;;;5092714;28;20002;-56
2022/12/31 13:02:34;;;;;;;;;;;;;;;;;;5088353;28;19924;-57
2022/12/31 13:05:00;;;;;;;;;;;;;;;;;;5096936;28;19931;-56
2022/12/31 13:07:26;;;;;;;;;;;;;;;;;;5091676;28;20026;-57
2022/12/31 13:09:53;;;;;;;;;;;;;;;;;;5087906;28;19991;-57
2022/12/31 13:12:19;;;;;;;;;;;;;;;;;;5093915;28;20912;-57
2022/12/31 13:14:45;;;;;;;;;;;;;;;;;;5091001;27;20571;-57
2022/12/31 13:17:11;;;;;;;;;;;;;;;;;;5092542;28;20254;-57
2022/12/31 13:19:37;;;;;;;;;;;;;;;;;;5089042;28;19924;-57
2022/12/31 13:22:03;;;;;;;;;;;;;;;;;;5093709;28;19967;-58
2022/12/31 13:24:29;;;;;;;;;;;;;;;;;;5098519;28;19963;-58
2022/12/31 13:26:55;;;;;;;;;;;;;;;;;;5107541;28;19924;-58
2022/12/31 13:29:21;;;;;;;;;;;;;;;;;;5095658;28;19928;-57
2022/12/31 13:31:47;;;;;;;;;;;;;;;;;;5092555;28;19924;-57
2022/12/31 13:34:13;;;;;;;;;;;;;;;;;;5098123;28;20015;-57
2022/12/31 13:36:39;;;;;;;;;;;;;;;;;;5098985;27;19939;-57
2022/12/31 13:39:05;;;;;;;;;;;;;;;;;;5097178;28;19924;-56
2022/12/31 13:41:31;;;;;;;;;;;;;;;;;;5097081;28;19951;-57
2022/12/31 13:43:57;;;;;;;;;;;;;;;;;;5104427;28;19931;-57
2022/12/31 13:46:23;;;;;;;;;;;;;;;;;;5098383;28;19938;-58
2022/12/31 13:48:49;;;;;;;;;;;;;;;;;;5100360;28;19934;-58
2022/12/31 13:51:15;;;;;;;;;;;;;;;;;;5101908;28;19927;-58
2022/12/31 13:53:41;;;;;;;;;;;;;;;;;;5101426;28;19954;-57
2022/12/31 13:56:07;;;;;;;;;;;;;;;;;;5101979;28;19930;-58
2022/12/31 13:58:33;;;;;;;;;;;;;;;;;;5084286;28;19928;-58
2022/12/31 14:00:59;;;;;;;;;;;;;;;;;;5088035;28;20268;-59
2022/12/31 14:03:25;;;;;;;;;;;;;;;;;;5089214;28;19940;-58
2022/12/31 14:05:51;;;;;;;;;;;;;;;;;;5083377;28;19932;-59
2022/12/31 14:08:17;;;;;;;;;;;;;;;;;;5088981;28;19928;-58
2022/12/31 14:10:43;;;;;;;;;;;;;;;;;;5083834;28;19932;-59
2022/12/31 14:13:10;;;;;;;;;;;;;;;;;;5085130;28;19932;-57
2022/12/31 14:15:36;;;;;;;;;;;;;;;;;;5100481;28;19927;-56
2022/12/31 14:18:02;;;;;;;;;;;;;;;;;;5102306;28;19923;-57
2022/12/31 14:20:28;;;;;;;;;;;;;;;;;;5100286;28;19938;-57
2022/12/31 14:22:54;;;;;;;;;;;;;;;;;;5101293;28;19923;-57
2022/12/31 14:25:20;;;;;;;;;;;;;;;;;;5084348;28;19977;-58
2022/12/31 14:27:46;;;;;;;;;;;;;;;;;;5099877;28;20404;-57
2022/12/31 14:30:12;;;;;;;;;;;;;;;;;;5097114;28;19978;-57
2022/12/31 14:32:38;;;;;;;;;;;;;;;;;;5101454;28;20015;-58
2022/12/31 14:35:04;;;;;;;;;;;;;;;;;;5085065;28;19928;-58
2022/12/31 14:37:30;;;;;;;;;;;;;;;;;;5103325;28;19927;-57
2022/12/31 14:39:56;;;;;;;;;;;;;;;;;;5104498;28;20278;-58
2022/12/31 14:42:22;;;;;;;;;;;;;;;;;;5104012;27;19934;-59
2022/12/31 14:44:48;;;;;;;;;;;;;;;;;;5103152;28;20018;-58
2022/12/31 14:47:14;;;;;;;;;;;;;;;;;;5100803;28;20378;-58
2022/12/31 14:49:40;;;;;;;;;;;;;;;;;;5102156;28;19931;-55
2022/12/31 14:52:06;;;;;;;;;;;;;;;;;;5084700;28;19935;-58
2022/12/31 14:54:32;;;;;;;;;;;;;;;;;;5103184;28;19924;-58
2022/12/31 14:56:58;;;;;;;;;;;;;;;;;;5104660;28;20031;-58
2022/12/31 14:59:25;;;;;;;;;;;;;;;;;;5098014;28;20006;-57
2022/12/31 15:01:51;;;;;;;;;;;;;;;;;;5098751;27;20007;-58
2022/12/31 15:04:17;;;;;;;;;;;;;;;;;;5104343;27;19924;-58
2022/12/31 15:06:43;;;;;;;;;;;;;;;;;;5103558;27;19931;-58
2022/12/31 15:09:09;;;;;;;;;;;;;;;;;;5104528;28;19930;-58
2022/12/31 15:11:35;;;;;;;;;;;;;;;;;;5092039;28;19924;-58
2022/12/31 15:14:01;;;;;;;;;;;;;;;;;;5082084;28;19975;-57
2022/12/31 15:16:27;;;;;;;;;;;;;;;;;;5079934;28;19990;-57
2022/12/31 15:18:53;;;;;;;;;;;;;;;;;;5072707;28;20413;-59
2022/12/31 15:21:19;;;;;;;;;;;;;;;;;;5081683;28;20155;-58
2022/12/31 15:23:45;;;;;;;;;;;;;;;;;;5080447;28;21777;-58
2022/12/31 15:26:11;;;;;;;;;;;;;;;;;;5078067;28;20027;-57
2022/12/31 15:28:37;;;;;;;;;;;;;;;;;;5083443;28;20010;-59
2022/12/31 15:31:03;;;;;;;;;;;;;;;;;;5081698;28;19985;-59
2022/12/31 15:33:29;;;;;;;;;;;;;;;;;;5083614;28;19936;-56
2022/12/31 15:35:55;;;;;;;;;;;;;;;;;;5066449;28;19939;-58
2022/12/31 15:38:21;;;;;;;;;;;;;;;;;;5083741;28;20046;-57
2022/12/31 15:40:47;;;;;;;;;;;;;;;;;;5083500;28;20045;-57
2022/12/31 15:43:13;;;;;;;;;;;;;;;;;;5080426;28;19924;-56
2022/12/31 15:45:39;;;;;;;;;;;;;;;;;;5071452;28;19928;-57
2022/12/31 15:48:05;;;;;;;;;;;;;;;;;;5080467;28;19932;-59
2022/12/31 15:50:31;;;;;;;;;;;;;;;;;;5080706;28;19967;-55
2022/12/31 15:52:57;;;;;;;;;;;;;;;;;;5084749;28;19928;-58
2022/12/31 15:55:23;;;;;;;;;;;;;;;;;;5073608;28;20086;-58
2022/12/31 15:57:49;;;;;;;;;;;;;;;;;;5082430;28;20031;-57
2022/12/31 16:00:16;;;;;;;;;;;;;;;;;;5065281;28;19936;-56
2022/12/31 16:02:42;;;;;;;;;;;;;;;;;;5080497;28;19928;-57
2022/12/31 16:05:08;;;;;;;;;;;;;;;;;;5080229;28;19928;-55
2022/12/31 16:07:34;;;;;;;;;;;;;;;;;;5063008;28;19928;-58
2022/12/31 16:10:00;;;;;;;;;;;;;;;;;;5080412;28;19995;-57
2022/12/31 16:12:26;;;;;;;;;;;;;;;;;;5087559;28;19997;-58
2022/12/31 16:14:52;;;;;;;;;;;;;;;;;;5076310;28;20504;-58
2022/12/31 16:17:18;;;;;;;;;;;;;;;;;;5089693;28;20444;-57
2022/12/31 16:19:45;;;;;;;;;;;;;;;;;;5089356;28;20055;-56
2022/12/31 16:22:11;;;;;;;;;;;;;;;;;;5073827;28;19928;-57
2022/12/31 16:24:37;;;;;;;;;;;;;;;;;;5076411;28;19924;-57
2022/12/31 16:27:03;;;;;;;;;;;;;;;;;;5091333;28;19932;-57
2022/12/31 16:29:29;;;;;;;;;;;;;;;;;;5095117;28;19927;-56
2022/12/31 16:31:55;;;;;;;;;;;;;;;;;;5098266;28;19928;-57
2022/12/31 16:34:21;;;;;;;;;;;;;;;;;;5104273;28;19924;-55
2022/12/31 16:36:47;;;;;;;;;;;;;;;;;;5100696;28;19979;-57
2022/12/31 16:39:13;;;;;;;;;;;;;;;;;;5092744;28;19924;-57
2022/12/31 16:41:39;;;;;;;;;;;;;;;;;;5100337;28;19924;-58
2022/12/31 16:44:05;;;;;;;;;;;;;;;;;;5101854;28;19927;-59
2022/12/31 16:46:32;;;;;;;;;;;;;;;;;;5082530;28;20404;-59
2022/12/31 16:48:58;;;;;;;;;;;;;;;;;;5096313;28;19928;-59
2022/12/31 16:51:24;;;;;;;;;;;;;;;;;;5098259;28;20374;-56